createdAt,value
2023-10-23T00:02:24.724Z,3.80
2023-10-23T00:04:52.905Z,3.10
2023-10-23T00:07:21.106Z,3.00
2023-10-23T00:09:49.203Z,2.50
2023-10-23T00:12:17.326Z,2.70
2023-10-23T00:14:45.629Z,2.40
2023-10-23T00:17:14.080Z,2.80
2023-10-23T00:19:42.192Z,2.30
2023-10-23T00:22:10.265Z,2.70
2023-10-23T00:24:39.184Z,2.90
2023-10-23T00:27:08.092Z,2.90
2023-10-23T00:29:36.623Z,3.20
2023-10-23T00:32:06.429Z,2.30
2023-10-23T00:34:34.526Z,3.60
2023-10-23T00:37:02.565Z,3.00
2023-10-23T00:39:30.924Z,2.40
2023-10-23T00:41:59.187Z,2.90
2023-10-23T00:44:29.057Z,3.00
2023-10-23T00:46:58.081Z,2.50
2023-10-23T00:49:26.451Z,2.90
2023-10-23T00:51:56.025Z,2.20
2023-10-23T00:54:25.072Z,3.10
2023-10-23T00:56:54.865Z,2.50
2023-10-23T00:59:23.540Z,3.40
2023-10-23T01:01:51.761Z,3.00
2023-10-23T01:04:20.901Z,2.70
2023-10-23T01:06:51.440Z,2.40
2023-10-23T01:09:20.036Z,2.70
2023-10-23T01:11:48.296Z,2.60
2023-10-23T01:14:16.609Z,2.70
2023-10-23T01:16:44.748Z,2.00
2023-10-23T01:19:13.149Z,2.30
2023-10-23T01:21:41.219Z,2.50
2023-10-23T01:24:12.512Z,2.30
2023-10-23T01:26:40.986Z,2.80
2023-10-23T01:29:09.293Z,2.60
2023-10-23T01:31:37.681Z,2.30
2023-10-23T01:34:07.534Z,2.30
2023-10-23T01:36:37.053Z,2.00
2023-10-23T01:39:05.852Z,1.80
2023-10-23T01:41:35.527Z,3.30
2023-10-23T01:44:03.762Z,2.40
2023-10-23T01:46:31.981Z,1.80
2023-10-23T01:49:00.450Z,1.80
2023-10-23T01:51:28.776Z,1.80
2023-10-23T01:53:57.493Z,2.30
2023-10-23T01:56:25.825Z,2.20
2023-10-23T01:58:54.282Z,2.20
2023-10-23T02:01:23.889Z,2.30
2023-10-23T02:03:52.236Z,2.00
2023-10-23T02:06:20.636Z,1.90
2023-10-23T02:08:48.920Z,1.60
2023-10-23T02:11:17.473Z,1.80
2023-10-23T02:13:45.936Z,1.80
2023-10-23T02:16:14.221Z,3.00
2023-10-23T02:18:42.518Z,2.50
2023-10-23T02:21:11.559Z,3.00
2023-10-23T02:23:55.596Z,2.50
2023-10-23T02:26:26.455Z,2.70
2023-10-23T02:28:54.734Z,2.40
2023-10-23T02:31:23.956Z,2.50
2023-10-23T02:33:52.490Z,2.30
2023-10-23T02:36:21.087Z,2.80
2023-10-23T02:38:49.437Z,2.10
2023-10-23T02:41:18.765Z,2.70
2023-10-23T02:43:48.301Z,2.60
2023-10-23T02:46:16.981Z,2.50
2023-10-23T02:48:45.158Z,2.60
2023-10-23T02:51:14.053Z,2.40
2023-10-23T02:53:42.364Z,3.30
2023-10-23T02:56:14.464Z,1.90
2023-10-23T02:58:42.912Z,2.50
2023-10-23T03:01:23.822Z,2.40
2023-10-23T03:03:52.960Z,2.50
2023-10-23T03:06:21.896Z,2.90
2023-10-23T03:08:50.125Z,3.10
2023-10-23T03:11:18.251Z,3.10
2023-10-23T03:13:47.299Z,4.00
2023-10-23T03:16:18.640Z,2.90
2023-10-23T03:18:46.880Z,2.60
2023-10-23T03:21:15.313Z,2.80
2023-10-23T03:23:43.417Z,2.50
2023-10-23T03:26:11.737Z,3.00
2023-10-23T03:28:39.850Z,3.20
2023-10-23T03:31:08.256Z,3.30
2023-10-23T03:33:36.673Z,3.30
2023-10-23T03:36:05.634Z,2.80
2023-10-23T03:38:33.854Z,4.20
2023-10-23T03:41:02.098Z,5.80
2023-10-23T03:43:30.744Z,3.20
2023-10-23T03:46:04.013Z,7.00
2023-10-23T03:48:35.878Z,4.00
2023-10-23T03:51:04.542Z,3.40
2023-10-23T03:53:32.843Z,3.20
2023-10-23T03:56:01.592Z,3.00
2023-10-23T03:58:30.354Z,3.30
2023-10-23T04:00:59.149Z,3.20
2023-10-23T04:03:27.427Z,2.30
2023-10-23T04:05:55.790Z,2.10
2023-10-23T04:08:23.906Z,3.30
2023-10-23T04:10:52.065Z,4.20
2023-10-23T04:13:22.791Z,2.50
2023-10-23T04:16:00.720Z,3.40
2023-10-23T04:18:29.428Z,2.50
2023-10-23T04:21:09.246Z,4.70
2023-10-23T04:23:38.642Z,6.20
2023-10-23T04:26:08.000Z,6.60
2023-10-23T04:28:38.125Z,15.50
2023-10-23T04:31:06.546Z,14.90
2023-10-23T04:33:35.307Z,5.60
2023-10-23T04:36:03.844Z,4.90
2023-10-23T04:38:32.652Z,4.40
2023-10-23T04:41:01.047Z,6.90
2023-10-23T04:43:29.334Z,5.70
2023-10-23T04:45:59.108Z,4.20
2023-10-23T04:48:27.413Z,5.10
2023-10-23T04:51:03.606Z,4.80
2023-10-23T04:53:31.681Z,5.10
2023-10-23T04:56:00.218Z,4.40
2023-10-23T04:58:30.926Z,3.90
2023-10-23T05:01:00.434Z,4.00
2023-10-23T05:03:29.472Z,7.00
2023-10-23T05:05:57.752Z,13.70
2023-10-23T05:08:25.851Z,4.80
2023-10-23T05:10:53.930Z,5.00
2023-10-23T05:13:22.542Z,4.70
2023-10-23T05:15:50.670Z,4.80
2023-10-23T05:18:18.839Z,4.50
2023-10-23T05:20:47.081Z,3.80
2023-10-23T05:23:15.683Z,3.40
2023-10-23T05:25:48.610Z,3.90
2023-10-23T05:28:16.968Z,3.90
2023-10-23T05:30:45.786Z,4.60
2023-10-23T05:33:14.077Z,3.60
2023-10-23T05:35:42.147Z,4.00
2023-10-23T05:38:10.409Z,3.40
2023-10-23T05:40:39.318Z,3.80
2023-10-23T05:43:07.792Z,4.00
2023-10-23T05:45:39.049Z,4.50
2023-10-23T05:48:07.327Z,3.20
2023-10-23T05:50:35.606Z,3.30
2023-10-23T05:53:04.002Z,3.90
2023-10-23T05:55:35.840Z,3.70
2023-10-23T05:58:04.334Z,3.30
2023-10-23T06:00:32.544Z,3.20
2023-10-23T06:03:00.717Z,2.80
2023-10-23T06:05:29.199Z,3.50
2023-10-23T06:07:57.521Z,3.40
2023-10-23T06:10:25.877Z,2.90
2023-10-23T06:12:54.243Z,2.70
2023-10-23T06:15:22.412Z,2.30
2023-10-23T06:17:50.797Z,2.90
2023-10-23T06:20:18.916Z,2.10
2023-10-23T06:22:47.328Z,2.70
2023-10-23T06:25:15.989Z,2.40
2023-10-23T06:27:44.491Z,3.50
2023-10-23T06:30:13.481Z,2.60
2023-10-23T06:32:41.768Z,3.20
2023-10-23T06:35:10.132Z,2.70
2023-10-23T06:37:38.793Z,2.40
2023-10-23T06:40:08.330Z,2.80
2023-10-23T06:42:36.446Z,1.80
2023-10-23T06:45:05.141Z,1.90
2023-10-23T06:47:34.015Z,1.90
2023-10-23T06:50:04.240Z,2.30
2023-10-23T06:52:33.381Z,1.60
2023-10-23T06:55:01.693Z,1.60
2023-10-23T06:57:30.145Z,1.80
2023-10-23T06:59:58.273Z,1.80
2023-10-23T07:02:26.411Z,2.00
2023-10-23T07:04:54.803Z,1.70
2023-10-23T07:07:30.205Z,1.60
2023-10-23T07:10:01.830Z,1.60
2023-10-23T07:12:30.358Z,2.40
2023-10-23T07:14:58.725Z,3.30
2023-10-23T07:17:26.973Z,3.60
2023-10-23T07:19:55.432Z,4.00
2023-10-23T07:22:23.581Z,3.70
2023-10-23T07:24:55.724Z,3.40
2023-10-23T07:27:24.028Z,3.50
2023-10-23T07:29:53.059Z,3.80
2023-10-23T07:32:21.427Z,4.20
2023-10-23T07:34:49.555Z,4.80
2023-10-23T07:37:19.656Z,5.20
2023-10-23T07:39:49.281Z,5.60
2023-10-23T07:42:17.760Z,5.40
2023-10-23T07:44:46.609Z,5.60
2023-10-23T07:47:14.856Z,5.20
2023-10-23T07:49:44.986Z,5.80
2023-10-23T07:52:13.559Z,5.70
2023-10-23T07:54:41.672Z,5.50
2023-10-23T07:57:10.447Z,5.00
2023-10-23T07:59:38.869Z,5.00
2023-10-23T08:02:07.293Z,4.90
2023-10-23T08:04:35.686Z,3.50
2023-10-23T08:07:04.147Z,3.40
2023-10-23T08:09:32.591Z,3.80
2023-10-23T08:12:00.689Z,3.10
2023-10-23T08:14:28.740Z,3.60
2023-10-23T08:16:56.991Z,3.10
2023-10-23T08:19:25.568Z,3.50
2023-10-23T08:21:53.881Z,3.20
2023-10-23T08:24:22.327Z,3.10
2023-10-23T08:26:51.618Z,3.60
2023-10-23T08:29:19.729Z,3.50
2023-10-23T08:31:48.360Z,3.40
2023-10-23T08:34:16.839Z,4.00
2023-10-23T08:36:45.085Z,3.60
2023-10-23T08:39:13.517Z,3.60
2023-10-23T08:41:42.988Z,3.90
2023-10-23T08:44:11.693Z,5.10
2023-10-23T08:46:41.541Z,3.00
2023-10-23T08:49:10.211Z,3.00
2023-10-23T08:51:44.732Z,3.40
2023-10-23T08:54:20.438Z,3.00
2023-10-23T08:56:58.276Z,3.40
2023-10-23T08:59:26.649Z,3.30
2023-10-23T09:02:01.948Z,3.20
2023-10-23T09:04:30.821Z,3.30
2023-10-23T09:07:00.936Z,3.10
2023-10-23T09:09:30.078Z,3.00
2023-10-23T09:11:59.043Z,3.00
2023-10-23T09:14:37.304Z,3.40
2023-10-23T09:17:06.080Z,2.80
2023-10-23T09:19:38.156Z,2.70
2023-10-23T09:22:08.464Z,2.30
2023-10-23T09:24:38.574Z,2.80
2023-10-23T09:27:07.171Z,2.50
2023-10-23T09:29:37.550Z,3.10
2023-10-23T09:32:07.136Z,2.70
2023-10-23T09:34:41.492Z,2.70
2023-10-23T09:37:10.900Z,3.30
2023-10-23T09:39:41.264Z,2.70
2023-10-23T09:42:10.565Z,3.70
2023-10-23T09:44:40.765Z,3.30
2023-10-23T09:47:10.716Z,2.80
2023-10-23T09:49:43.822Z,3.10
2023-10-23T09:52:13.081Z,2.40
2023-10-23T09:54:44.417Z,2.20
2023-10-23T09:57:15.843Z,2.20
2023-10-23T09:59:53.443Z,1.90
2023-10-23T10:02:26.057Z,1.30
2023-10-23T10:05:06.392Z,1.70
2023-10-23T10:07:37.228Z,1.90
2023-10-23T10:10:06.984Z,1.60
2023-10-23T10:12:39.227Z,2.00
2023-10-23T10:15:13.452Z,1.60
2023-10-23T10:17:45.227Z,1.30
2023-10-23T10:20:14.013Z,1.40
2023-10-23T10:22:44.924Z,1.60
2023-10-23T10:25:14.799Z,1.50
2023-10-23T10:27:43.152Z,1.50
2023-10-23T10:30:42.782Z,1.50
2023-10-23T10:34:25.292Z,1.40
2023-10-23T10:36:12.432Z,1.60
2023-10-23T10:38:42.358Z,1.50
2023-10-23T10:41:20.085Z,1.10
2023-10-23T10:43:53.074Z,1.50
2023-10-23T10:46:28.049Z,2.00
2023-10-23T10:48:57.231Z,1.50
2023-10-23T10:51:27.887Z,1.30
2023-10-23T10:53:59.573Z,1.70
2023-10-23T10:56:28.489Z,2.00
2023-10-23T10:59:03.830Z,1.60
2023-10-23T11:01:33.398Z,1.50
2023-10-23T11:04:01.850Z,1.70
2023-10-23T11:06:31.252Z,1.40
2023-10-23T11:09:00.604Z,1.10
2023-10-23T11:11:29.649Z,1.40
2023-10-23T11:14:03.644Z,1.70
2023-10-23T11:16:32.301Z,1.70
2023-10-23T11:19:02.250Z,1.60
2023-10-23T11:21:30.534Z,1.40
2023-10-23T11:23:58.818Z,1.50
2023-10-23T11:26:27.490Z,1.50
2023-10-23T11:28:55.867Z,1.50
2023-10-23T11:31:24.144Z,1.40
2023-10-23T11:33:56.227Z,2.00
2023-10-23T11:36:28.120Z,1.40
2023-10-23T11:38:58.178Z,1.20
2023-10-23T11:41:28.924Z,1.60
2023-10-23T11:44:02.267Z,1.70
2023-10-23T11:46:31.177Z,1.20
2023-10-23T11:49:02.434Z,1.90
2023-10-23T11:51:31.227Z,1.20
2023-10-23T11:54:00.616Z,1.40
2023-10-23T11:56:30.038Z,1.20
2023-10-23T11:58:58.500Z,1.60
2023-10-23T12:01:26.749Z,1.10
2023-10-23T12:03:54.960Z,1.40
2023-10-23T12:06:23.252Z,1.60
2023-10-23T12:08:51.808Z,1.40
2023-10-23T12:11:20.274Z,1.80
2023-10-23T12:13:48.457Z,1.70
2023-10-23T12:16:16.794Z,1.40
2023-10-23T12:18:45.239Z,1.40
2023-10-23T12:21:15.052Z,1.40
2023-10-23T12:23:43.617Z,1.70
2023-10-23T12:26:12.539Z,1.50
2023-10-23T12:28:41.173Z,1.50
2023-10-23T12:31:22.724Z,1.80
2023-10-23T12:33:53.386Z,1.90
2023-10-23T12:36:22.450Z,1.80
2023-10-23T12:38:50.513Z,1.80
2023-10-23T12:41:19.436Z,1.50
2023-10-23T12:43:49.021Z,1.30
2023-10-23T12:46:18.522Z,1.10
2023-10-23T12:48:46.880Z,1.40
2023-10-23T12:51:16.656Z,1.50
2023-10-23T12:53:45.233Z,1.30
2023-10-23T12:56:13.741Z,4.50
2023-10-23T12:58:42.660Z,1.30
2023-10-23T13:01:11.002Z,1.20
2023-10-23T13:03:39.361Z,1.90
2023-10-23T13:06:08.883Z,1.20
2023-10-23T13:08:37.709Z,1.10
2023-10-23T13:11:06.700Z,1.90
2023-10-23T13:13:34.774Z,2.60
2023-10-23T13:16:03.212Z,1.30
2023-10-23T13:18:33.423Z,1.60
2023-10-23T13:21:33.564Z,1.20
2023-10-23T13:23:51.368Z,1.60
2023-10-23T13:26:19.792Z,2.00
2023-10-23T13:28:49.497Z,1.40
2023-10-23T13:31:18.494Z,1.80
2023-10-23T13:33:47.336Z,1.50
2023-10-23T13:36:15.529Z,1.60
2023-10-23T13:38:43.806Z,1.60
2023-10-23T13:41:12.169Z,1.60
2023-10-23T13:43:40.864Z,1.90
2023-10-23T13:46:09.185Z,2.00
2023-10-23T13:48:37.622Z,9.10
2023-10-23T13:51:05.799Z,1.90
2023-10-23T13:53:34.534Z,1.90
2023-10-23T13:56:03.048Z,1.90
2023-10-23T13:58:31.293Z,2.40
2023-10-23T14:01:00.291Z,1.40
2023-10-23T14:03:29.477Z,1.90
2023-10-23T14:05:59.297Z,2.10
2023-10-23T14:08:32.677Z,1.60
2023-10-23T14:11:57.216Z,1.60
2023-10-23T14:14:04.014Z,1.90
2023-10-23T14:16:32.462Z,2.30
2023-10-23T14:19:00.807Z,1.50
2023-10-23T14:21:29.781Z,1.70
2023-10-23T14:23:57.891Z,1.70
2023-10-23T14:26:27.294Z,2.20
2023-10-23T14:28:57.106Z,2.00
2023-10-23T14:31:25.461Z,1.80
2023-10-23T14:33:55.195Z,1.70
2023-10-23T14:36:24.514Z,2.40
2023-10-23T14:38:52.875Z,1.40
2023-10-23T14:41:21.521Z,2.20
2023-10-23T14:43:49.666Z,1.70
2023-10-23T14:46:18.168Z,2.50
2023-10-23T14:48:48.206Z,1.70
2023-10-23T14:51:16.601Z,2.90
2023-10-23T14:53:45.212Z,2.10
2023-10-23T14:56:14.054Z,2.60
2023-10-23T14:58:42.269Z,2.70
2023-10-23T15:01:10.543Z,3.00
2023-10-23T15:03:43.385Z,4.50
2023-10-23T15:06:13.072Z,3.80
2023-10-23T15:08:42.692Z,2.50
2023-10-23T15:11:15.200Z,2.40
2023-10-23T15:13:43.641Z,2.10
2023-10-23T15:16:12.098Z,3.10
2023-10-23T15:18:40.871Z,3.00
2023-10-23T15:21:09.466Z,2.80
2023-10-23T15:23:37.884Z,3.40
2023-10-23T15:26:06.191Z,3.50
2023-10-23T15:28:37.022Z,4.80
2023-10-23T15:31:07.057Z,3.50
2023-10-23T15:33:37.090Z,4.90
2023-10-23T15:36:06.822Z,2.70
2023-10-23T15:38:36.549Z,2.50
2023-10-23T15:41:08.072Z,2.40
2023-10-23T15:43:37.990Z,2.80
2023-10-23T15:46:12.635Z,2.60
2023-10-23T15:48:42.387Z,3.10
2023-10-23T15:51:11.790Z,3.00
2023-10-23T15:53:40.504Z,3.30
2023-10-23T15:56:09.317Z,3.50
2023-10-23T15:58:37.817Z,4.20
2023-10-23T16:01:06.698Z,3.40
2023-10-23T16:03:36.037Z,4.30
2023-10-23T16:06:13.812Z,3.70
2023-10-23T16:08:41.947Z,3.60
2023-10-23T16:11:10.272Z,3.20
2023-10-23T16:13:39.516Z,3.70
2023-10-23T16:16:16.357Z,3.10
2023-10-23T16:18:46.805Z,3.30
2023-10-23T16:21:16.508Z,2.80
2023-10-23T16:23:45.050Z,3.00
2023-10-23T16:26:13.491Z,3.00
2023-10-23T16:28:42.029Z,3.90
2023-10-23T16:31:15.205Z,3.40
2023-10-23T16:33:43.710Z,3.80
2023-10-23T16:36:12.294Z,3.20
2023-10-23T16:38:41.391Z,3.80
2023-10-23T16:41:09.577Z,2.90
2023-10-23T16:43:41.579Z,2.90
2023-10-23T16:46:12.816Z,2.90
2023-10-23T16:48:42.938Z,2.60
2023-10-23T16:51:11.611Z,2.60
2023-10-23T16:53:40.486Z,2.90
2023-10-23T16:56:08.774Z,3.20
2023-10-23T16:58:39.578Z,3.60
2023-10-23T17:01:11.156Z,2.60
2023-10-23T17:03:41.341Z,3.20
2023-10-23T17:06:10.541Z,2.60
2023-10-23T17:08:38.809Z,3.00
2023-10-23T17:11:08.727Z,3.30
2023-10-23T17:13:37.921Z,2.90
2023-10-23T17:16:07.026Z,3.40
2023-10-23T17:18:35.166Z,4.00
2023-10-23T17:21:03.837Z,3.00
2023-10-23T17:23:33.099Z,3.40
2023-10-23T17:26:06.062Z,3.40
2023-10-23T17:28:36.218Z,3.20
2023-10-23T17:31:08.105Z,3.50
2023-10-23T17:33:36.968Z,5.90
2023-10-23T17:36:06.200Z,3.90
2023-10-23T17:38:38.145Z,3.90
2023-10-23T17:41:15.881Z,3.80
2023-10-23T17:43:44.911Z,3.40
2023-10-23T17:46:13.532Z,3.60
2023-10-23T17:48:41.798Z,3.40
2023-10-23T17:51:11.948Z,3.60
2023-10-23T17:53:53.680Z,3.60
2023-10-23T17:56:29.753Z,3.50
2023-10-23T17:58:59.078Z,4.20
2023-10-23T18:01:30.387Z,4.50
2023-10-23T18:03:59.777Z,3.90
2023-10-23T18:06:28.114Z,4.70
2023-10-23T18:08:57.997Z,3.80
2023-10-23T18:11:26.341Z,3.60
2023-10-23T18:13:54.468Z,4.40
2023-10-23T18:16:24.373Z,4.10
2023-10-23T18:18:52.524Z,4.70
2023-10-23T18:21:20.726Z,4.20
2023-10-23T18:23:49.098Z,4.50
2023-10-23T18:26:17.932Z,4.90
2023-10-23T18:28:46.125Z,3.90
2023-10-23T18:31:15.263Z,5.60
2023-10-23T18:33:46.817Z,4.70
2023-10-23T18:36:19.452Z,5.00
2023-10-23T18:38:48.238Z,4.70
2023-10-23T18:41:36.672Z,5.00
2023-10-23T18:44:05.710Z,4.40
2023-10-23T18:46:36.058Z,5.00
2023-10-23T18:49:05.272Z,6.50
2023-10-23T18:51:33.821Z,5.20
2023-10-23T18:54:02.538Z,5.00
2023-10-23T18:56:32.473Z,4.80
2023-10-23T18:59:00.830Z,5.50
2023-10-23T19:01:29.266Z,5.30
2023-10-23T19:04:00.501Z,5.40
2023-10-23T19:06:30.623Z,5.30
2023-10-23T19:09:03.768Z,5.40
2023-10-23T19:11:32.390Z,5.30
2023-10-23T19:14:01.948Z,5.30
2023-10-23T19:16:30.058Z,6.00
2023-10-23T19:19:00.196Z,6.00
2023-10-23T19:21:33.433Z,7.00
2023-10-23T19:24:02.614Z,6.40
2023-10-23T19:26:30.951Z,5.80
2023-10-23T19:28:59.077Z,5.50
2023-10-23T19:31:28.373Z,5.40
2023-10-23T19:33:57.251Z,6.20
2023-10-23T19:36:26.261Z,5.30
2023-10-23T19:38:55.264Z,5.40
2023-10-23T19:41:35.169Z,5.40
2023-10-23T19:44:04.441Z,4.80
2023-10-23T19:46:33.047Z,6.30
2023-10-23T19:49:19.276Z,6.20
2023-10-23T19:52:10.139Z,6.00
2023-10-23T19:55:04.639Z,6.10
2023-10-23T19:58:03.016Z,6.30
2023-10-23T20:00:33.655Z,6.40
2023-10-23T20:03:01.915Z,5.40
2023-10-23T20:05:32.156Z,6.10
2023-10-23T20:08:02.104Z,5.90
2023-10-23T20:10:31.587Z,5.70
2023-10-23T20:13:00.322Z,6.80
2023-10-23T20:15:30.570Z,7.10
2023-10-23T20:17:59.203Z,5.60
2023-10-23T20:20:27.780Z,6.10
2023-10-23T20:22:56.318Z,6.40
2023-10-23T20:25:24.790Z,5.50
2023-10-23T20:27:53.267Z,6.50
2023-10-23T20:30:21.868Z,6.20
2023-10-23T20:32:50.648Z,6.40
2023-10-23T20:35:19.292Z,6.50
2023-10-23T20:37:47.328Z,7.10
2023-10-23T20:40:15.853Z,5.90
2023-10-23T20:42:44.070Z,7.40
2023-10-23T20:45:14.413Z,6.80
2023-10-23T20:47:43.354Z,7.10
2023-10-23T20:50:11.764Z,6.90
2023-10-23T20:52:39.945Z,6.00
2023-10-23T20:55:08.725Z,6.80
2023-10-23T20:57:37.389Z,6.40
2023-10-23T21:00:07.678Z,6.80
2023-10-23T21:02:37.316Z,6.50
2023-10-23T21:05:06.661Z,6.00
2023-10-23T21:07:35.660Z,7.70
2023-10-23T21:10:04.643Z,6.40
2023-10-23T21:12:32.842Z,6.40
2023-10-23T21:15:00.902Z,6.70
2023-10-23T21:17:29.596Z,6.80
2023-10-23T21:19:57.974Z,7.30
2023-10-23T21:22:26.328Z,7.20
2023-10-23T21:24:54.460Z,7.70
2023-10-23T21:27:22.840Z,6.20
2023-10-23T21:29:51.170Z,7.20
2023-10-23T21:32:19.279Z,6.70
2023-10-23T21:34:47.389Z,6.50
2023-10-23T21:37:15.536Z,6.80
2023-10-23T21:39:43.757Z,5.50
2023-10-23T21:42:11.863Z,6.30
2023-10-23T21:44:40.407Z,6.70
2023-10-23T21:47:08.741Z,7.00
2023-10-23T21:49:37.496Z,7.30
2023-10-23T21:52:06.981Z,7.50
2023-10-23T21:54:35.819Z,7.30
2023-10-23T21:57:20.586Z,6.10
2023-10-23T21:59:52.001Z,7.00
2023-10-23T22:02:20.920Z,7.20
2023-10-23T22:04:49.487Z,6.70
2023-10-23T22:07:18.359Z,7.40
2023-10-23T22:09:46.942Z,7.10
2023-10-23T22:12:16.027Z,6.40
2023-10-23T22:14:44.727Z,7.10
2023-10-23T22:17:13.075Z,6.80
2023-10-23T22:19:41.785Z,7.00
2023-10-23T22:22:10.050Z,7.00
2023-10-23T22:24:38.466Z,6.70
2023-10-23T22:27:06.706Z,7.60
2023-10-23T22:29:35.092Z,6.30
2023-10-23T22:32:05.133Z,7.30
2023-10-23T22:34:33.582Z,7.30
2023-10-23T22:37:55.125Z,6.50
2023-10-23T22:39:50.113Z,8.00
2023-10-23T22:42:18.416Z,7.00
2023-10-23T22:44:46.433Z,7.90
2023-10-23T22:47:15.188Z,6.60
2023-10-23T22:49:44.420Z,7.40
2023-10-23T22:52:13.250Z,8.10
2023-10-23T22:54:42.457Z,7.50
2023-10-23T22:57:13.331Z,7.70
2023-10-23T22:59:43.924Z,7.80
2023-10-23T23:02:14.459Z,7.00
2023-10-23T23:04:43.271Z,7.30
2023-10-23T23:07:12.692Z,7.80
2023-10-23T23:09:41.315Z,7.60
2023-10-23T23:12:10.347Z,7.50
2023-10-23T23:14:39.117Z,8.10
2023-10-23T23:17:08.311Z,6.80
2023-10-23T23:19:40.329Z,8.20
2023-10-23T23:22:10.252Z,7.50
2023-10-23T23:24:38.817Z,8.20
2023-10-23T23:27:07.418Z,8.30
2023-10-23T23:29:36.106Z,8.30
2023-10-23T23:32:05.015Z,7.90
2023-10-23T23:34:33.300Z,8.10
2023-10-23T23:37:01.849Z,7.50
2023-10-23T23:39:30.097Z,7.20
2023-10-23T23:41:58.730Z,8.00
2023-10-23T23:44:27.210Z,7.70
2023-10-23T23:46:57.641Z,7.90
2023-10-23T23:49:28.456Z,7.60
2023-10-23T23:51:56.853Z,7.90
2023-10-23T23:54:24.985Z,8.70
2023-10-23T23:56:53.553Z,8.20
2023-10-23T23:59:22.186Z,8.80
